createdAt,value
2019-03-27T00:04:21.711Z,6.20
2019-03-27T00:16:41.428Z,4.62
2019-03-27T00:56:27.711Z,7.15
2019-03-27T00:59:19.100Z,5.22
2019-03-27T01:02:02.662Z,7.40
2019-03-27T01:05:01.262Z,7.67
2019-03-27T01:10:47.738Z,4.35
2019-03-27T01:13:35.315Z,8.23
2019-03-27T01:16:34.015Z,4.12
2019-03-27T01:19:21.072Z,4.65
2019-03-27T01:31:45.596Z,4.37
2019-03-27T01:34:32.051Z,5.08
2019-03-27T01:37:25.333Z,5.67
2019-03-27T01:40:05.264Z,4.58
2019-03-27T01:46:02.161Z,6.42
2019-03-27T01:49:02.930Z,7.12
2019-03-27T01:51:49.531Z,6.47
2019-03-27T01:54:41.335Z,7.05
2019-03-27T01:57:37.944Z,8.05
2019-03-27T02:13:20.507Z,12.05
2019-03-27T02:19:16.333Z,12.23
2019-03-27T02:34:27.052Z,9.85
2019-03-27T02:43:42.749Z,12.80
2019-03-27T03:01:59.382Z,14.03
2019-03-27T03:04:47.664Z,22.35
2019-03-27T03:07:39.452Z,10.80
2019-03-27T03:10:28.971Z,9.15
2019-03-27T03:13:17.282Z,8.10
2019-03-27T03:16:07.631Z,10.28
2019-03-27T03:18:47.416Z,10.45
2019-03-27T03:21:33.582Z,11.00
2019-03-27T03:24:22.068Z,10.90
2019-03-27T03:27:08.665Z,11.45
2019-03-27T03:29:59.085Z,11.20
2019-03-27T03:32:49.473Z,9.10
2019-03-27T03:35:45.199Z,13.18
2019-03-27T03:38:25.422Z,14.58
2019-03-27T03:41:04.485Z,15.32
2019-03-27T03:43:52.169Z,15.25
2019-03-27T03:46:39.841Z,15.13
2019-03-27T03:49:22.572Z,15.43
2019-03-27T03:52:11.269Z,14.05
2019-03-27T03:54:59.256Z,15.72
2019-03-27T03:57:55.617Z,16.17
2019-03-27T04:00:33.822Z,20.17
2019-03-27T04:03:31.298Z,22.85
2019-03-27T04:06:15.093Z,23.38
2019-03-27T04:09:01.467Z,17.12
2019-03-27T04:11:47.607Z,15.08
2019-03-27T04:17:27.264Z,14.87
2019-03-27T04:20:12.339Z,14.55
2019-03-27T04:23:02.468Z,16.75
2019-03-27T04:26:08.059Z,17.57
2019-03-27T04:31:32.033Z,20.25
2019-03-27T04:34:17.927Z,18.25
2019-03-27T04:37:07.284Z,18.27
2019-03-27T04:42:44.131Z,19.77
2019-03-27T04:45:31.545Z,17.37
2019-03-27T04:48:13.322Z,15.65
2019-03-27T04:51:04.969Z,17.75
2019-03-27T04:53:51.052Z,21.35
2019-03-27T04:56:37.316Z,26.37
2019-03-27T04:59:24.351Z,21.62
2019-03-27T05:02:17.236Z,20.48
2019-03-27T05:05:08.569Z,28.92
2019-03-27T05:08:10.859Z,20.52
2019-03-27T05:11:02.337Z,16.12
2019-03-27T05:13:48.171Z,17.48
2019-03-27T05:16:23.675Z,15.13
2019-03-27T05:19:05.248Z,16.83
2019-03-27T05:21:50.274Z,20.10
2019-03-27T05:27:49.085Z,19.95
2019-03-27T05:33:53.372Z,21.65
2019-03-27T05:53:28.228Z,139.20
2019-03-27T06:02:24.872Z,52.90
2019-03-27T06:05:04.538Z,15.85
2019-03-27T06:08:04.042Z,26.48
2019-03-27T06:27:33.890Z,34.80
2019-03-27T06:30:31.018Z,27.82
2019-03-27T06:33:16.124Z,29.80
2019-03-27T06:36:04.811Z,31.20
2019-03-27T06:38:49.038Z,44.53
2019-03-27T06:41:47.302Z,14.10
2019-03-27T06:50:50.461Z,38.15
2019-03-27T06:53:38.555Z,29.45
2019-03-27T06:59:27.931Z,26.62
2019-03-27T07:02:28.865Z,21.05
2019-03-27T07:08:31.540Z,18.55
2019-03-27T07:14:13.231Z,17.52
2019-03-27T07:17:01.962Z,15.18
2019-03-27T07:19:55.691Z,13.90
2019-03-27T07:22:41.313Z,13.10
2019-03-27T07:32:05.601Z,15.85
2019-03-27T07:35:02.510Z,13.03
2019-03-27T07:40:55.071Z,16.80
2019-03-27T07:43:40.313Z,14.53
2019-03-27T07:55:40.736Z,12.47
2019-03-27T08:01:39.778Z,13.55
2019-03-27T08:04:28.177Z,12.70
2019-03-27T08:31:23.696Z,10.08
2019-03-27T08:37:07.363Z,12.63
2019-03-27T08:45:56.698Z,15.00
2019-03-27T08:48:42.027Z,15.68
2019-03-27T08:51:38.154Z,12.03
2019-03-27T08:54:43.562Z,11.90
2019-03-27T08:57:30.667Z,11.22
2019-03-27T09:15:34.455Z,12.18
2019-03-27T09:30:32.958Z,14.53
2019-03-27T09:33:19.736Z,14.50
2019-03-27T09:39:06.690Z,23.00
2019-03-27T09:41:54.574Z,15.58
2019-03-27T09:44:45.373Z,15.55
2019-03-27T09:47:28.763Z,11.30
2019-03-27T09:50:22.536Z,4.87
2019-03-27T09:53:12.101Z,5.12
2019-03-27T09:56:00.560Z,5.12
2019-03-27T10:01:52.167Z,4.10
2019-03-27T10:13:57.138Z,5.33
2019-03-27T10:16:43.767Z,4.92
2019-03-27T10:22:35.859Z,6.97
2019-03-27T10:25:33.173Z,6.55
2019-03-27T10:31:21.536Z,11.73
2019-03-27T10:37:14.610Z,3.90
2019-03-27T10:40:00.772Z,6.65
2019-03-27T10:42:50.376Z,3.95
2019-03-27T10:45:44.700Z,3.87
2019-03-27T10:48:33.842Z,5.80
2019-03-27T10:51:36.054Z,3.95
2019-03-27T11:00:08.804Z,5.20
2019-03-27T11:59:54.090Z,6.28
2019-03-27T12:02:42.230Z,8.28
2019-03-27T12:05:26.610Z,9.00
2019-03-27T12:08:21.436Z,7.08
2019-03-27T12:11:29.855Z,4.67
2019-03-27T12:14:13.731Z,5.22
2019-03-27T12:26:02.748Z,4.65
2019-03-27T12:31:52.392Z,5.30
2019-03-27T12:34:46.735Z,4.87
2019-03-27T12:40:32.371Z,6.40
2019-03-27T12:43:26.904Z,4.30
2019-03-27T12:46:20.546Z,4.42
2019-03-27T12:49:02.638Z,4.20
2019-03-27T12:51:44.570Z,5.95
2019-03-27T12:54:36.979Z,5.70
2019-03-27T12:57:26.802Z,11.08
2019-03-27T13:00:24.032Z,10.05
2019-03-27T13:03:17.820Z,6.00
2019-03-27T13:06:08.433Z,7.40
2019-03-27T13:08:53.154Z,10.88
2019-03-27T13:14:37.516Z,3.95
2019-03-27T13:17:27.176Z,3.92
2019-03-27T13:20:22.499Z,9.88
2019-03-27T13:23:10.671Z,7.20
2019-03-27T13:29:01.997Z,4.05
2019-03-27T13:31:54.163Z,3.80
2019-03-27T13:34:35.444Z,6.35
2019-03-27T13:37:26.073Z,3.70
2019-03-27T13:40:21.059Z,6.28
2019-03-27T13:43:22.928Z,6.12
2019-03-27T13:49:06.086Z,3.45
2019-03-27T13:54:49.483Z,3.85
2019-03-27T13:57:44.733Z,5.72
2019-03-27T14:00:30.323Z,3.80
2019-03-27T14:03:12.565Z,3.22
2019-03-27T14:05:49.976Z,3.60
2019-03-27T14:08:33.437Z,3.27
2019-03-27T14:11:35.186Z,3.37
2019-03-27T14:14:29.849Z,3.75
2019-03-27T14:17:20.873Z,4.97
2019-03-27T14:20:15.453Z,3.35
2019-03-27T14:22:50.985Z,4.97
2019-03-27T14:25:37.453Z,4.08
2019-03-27T14:28:21.056Z,5.10
2019-03-27T14:33:43.626Z,3.60
2019-03-27T14:36:33.249Z,3.22
2019-03-27T14:45:28.737Z,3.08
2019-03-27T14:48:11.912Z,5.50
2019-03-27T14:51:04.721Z,5.08
2019-03-27T14:53:51.858Z,6.97
2019-03-27T14:59:40.544Z,8.23
2019-03-27T15:02:28.912Z,4.20
2019-03-27T15:05:19.893Z,4.05
2019-03-27T15:07:59.381Z,3.15
2019-03-27T15:10:47.259Z,3.05
2019-03-27T15:13:32.474Z,2.40
2019-03-27T15:16:17.054Z,2.37
2019-03-27T15:19:04.053Z,6.37
2019-03-27T15:21:47.638Z,3.50
2019-03-27T15:24:33.842Z,6.58
2019-03-27T15:27:13.936Z,3.75
2019-03-27T15:29:59.781Z,3.40
2019-03-27T15:36:00.945Z,4.78
2019-03-27T15:38:50.646Z,9.23
2019-03-27T15:41:34.858Z,5.35
2019-03-27T15:44:27.784Z,3.90
2019-03-27T15:53:42.019Z,5.33
2019-03-27T15:56:22.835Z,3.98
2019-03-27T15:59:15.013Z,4.28
2019-03-27T16:08:09.527Z,4.85
2019-03-27T16:11:02.197Z,4.20
2019-03-27T16:16:57.643Z,3.60
2019-03-27T16:19:33.069Z,6.60
2019-03-27T16:22:20.984Z,3.75
2019-03-27T16:24:55.867Z,3.92
2019-03-27T16:27:34.280Z,4.47
2019-03-27T16:30:17.737Z,4.05
2019-03-27T16:35:51.880Z,3.45
2019-03-27T16:38:40.352Z,7.85
2019-03-27T16:41:28.293Z,4.22
2019-03-27T16:44:15.651Z,11.20
2019-03-27T16:46:54.080Z,4.45
2019-03-27T16:53:03.721Z,9.13
2019-03-27T16:55:42.151Z,6.15
2019-03-27T16:58:36.849Z,8.00
2019-03-27T17:01:22.393Z,4.50
2019-03-27T17:04:14.386Z,6.67
2019-03-27T17:07:03.772Z,6.25
2019-03-27T17:09:54.814Z,4.53
2019-03-27T17:12:45.169Z,4.42
2019-03-27T17:18:30.923Z,3.90
2019-03-27T17:21:12.250Z,6.72
2019-03-27T17:23:56.381Z,4.37
2019-03-27T17:26:34.355Z,4.95
2019-03-27T17:29:10.789Z,6.25
2019-03-27T17:32:01.630Z,4.70
2019-03-27T17:34:51.819Z,4.50
2019-03-27T17:37:37.130Z,7.00
2019-03-27T17:40:22.280Z,4.25
2019-03-27T17:43:09.742Z,6.87
2019-03-27T17:45:48.112Z,5.15
2019-03-27T17:48:27.413Z,3.87
2019-03-27T17:51:21.005Z,5.58
2019-03-27T17:54:20.517Z,5.83
2019-03-27T17:57:00.631Z,6.92
2019-03-27T17:59:48.937Z,5.05
2019-03-27T18:02:34.453Z,8.95
2019-03-27T18:05:19.592Z,5.45
2019-03-27T18:08:07.374Z,10.77
2019-03-27T18:11:02.277Z,7.45
2019-03-27T18:13:50.103Z,7.25
2019-03-27T18:16:30.378Z,6.50
2019-03-27T18:19:09.101Z,5.60
2019-03-27T18:21:48.892Z,5.50
2019-03-27T18:24:41.048Z,6.72
2019-03-27T18:27:20.588Z,7.28
2019-03-27T18:30:11.838Z,5.90
2019-03-27T18:32:59.722Z,5.85
2019-03-27T18:35:48.660Z,5.85
2019-03-27T18:38:36.472Z,5.10
2019-03-27T18:47:51.265Z,6.47
2019-03-27T18:57:37.463Z,6.05
2019-03-27T19:03:29.941Z,6.70
2019-03-27T19:06:22.975Z,7.05
2019-03-27T19:09:13.367Z,8.38
2019-03-27T19:12:05.062Z,7.95
2019-03-27T19:18:17.586Z,5.85
2019-03-27T19:21:10.149Z,7.30
2019-03-27T19:23:51.158Z,7.72
2019-03-27T19:32:50.771Z,8.05
2019-03-27T19:48:05.685Z,7.28
2019-03-27T19:57:29.643Z,7.30
2019-03-27T20:03:37.442Z,8.58
2019-03-27T20:06:29.024Z,9.08
2019-03-27T20:09:15.858Z,22.95
2019-03-27T20:12:09.668Z,17.48
2019-03-27T20:15:11.299Z,16.73
2019-03-27T20:27:37.406Z,13.08
2019-03-27T20:30:33.739Z,15.90
2019-03-27T20:36:28.433Z,10.08
2019-03-27T20:39:19.825Z,18.57
2019-03-27T20:42:02.708Z,23.02
2019-03-27T20:44:39.099Z,28.10
2019-03-27T20:47:23.758Z,35.45
2019-03-27T20:50:09.827Z,34.58
2019-03-27T20:52:50.347Z,33.65
2019-03-27T20:55:35.039Z,23.90
2019-03-27T20:58:07.136Z,34.58
2019-03-27T21:01:02.474Z,48.15
2019-03-27T21:03:55.921Z,45.95
2019-03-27T21:06:52.410Z,21.15
2019-03-27T21:12:47.394Z,28.60
2019-03-27T21:18:45.262Z,12.37
2019-03-27T21:25:08.172Z,17.05
2019-03-27T21:27:41.222Z,13.00
2019-03-27T21:30:31.604Z,12.93
2019-03-27T21:39:40.738Z,10.80
2019-03-27T21:42:37.874Z,7.80
2019-03-27T21:45:32.013Z,9.88
2019-03-27T21:51:21.355Z,14.87
2019-03-27T21:54:22.786Z,12.58
2019-03-27T22:03:22.625Z,11.57
2019-03-27T22:09:12.763Z,7.92
2019-03-27T22:38:51.838Z,10.53
2019-03-27T23:47:12.829Z,10.90
2019-03-27T23:53:15.863Z,9.58
2019-03-27T23:56:01.755Z,7.70
